sensor_id;sensor_type;location;lat;lon;timestamp;pressure;altitude;pressure_sealevel;temperature;humidity
69145;BME280;56251;50.324;17.574;2022-10-31T00:00:25;102228.05;;;12.31;73.09
69145;BME280;56251;50.324;17.574;2022-10-31T00:00:53;102225.63;;;12.33;72.99
69145;BME280;56251;50.324;17.574;2022-10-31T00:03:32;102226.43;;;12.24;73.04
69145;BME280;56251;50.324;17.574;2022-10-31T00:04:00;102224.30;;;12.26;73.01
69145;BME280;56251;50.324;17.574;2022-10-31T00:06:38;102225.77;;;12.19;72.94
69145;BME280;56251;50.324;17.574;2022-10-31T00:07:06;102225.40;;;12.23;72.89
69145;BME280;56251;50.324;17.574;2022-10-31T00:09:44;102223.51;;;12.20;72.82
69145;BME280;56251;50.324;17.574;2022-10-31T00:10:12;102225.04;;;12.17;72.88
69145;BME280;56251;50.324;17.574;2022-10-31T00:12:51;102224.18;;;12.15;72.77
69145;BME280;56251;50.324;17.574;2022-10-31T00:13:18;102228.14;;;12.11;72.77
69145;BME280;56251;50.324;17.574;2022-10-31T00:15:59;102227.30;;;12.10;72.65
69145;BME280;56251;50.324;17.574;2022-10-31T00:16:25;102228.35;;;12.11;72.59
69145;BME280;56251;50.324;17.574;2022-10-31T00:19:06;102229.28;;;12.04;72.71
69145;BME280;56251;50.324;17.574;2022-10-31T00:19:31;102228.81;;;12.05;72.67
69145;BME280;56251;50.324;17.574;2022-10-31T00:22:13;102227.90;;;11.96;72.86
69145;BME280;56251;50.324;17.574;2022-10-31T00:22:37;102226.88;;;11.97;72.90
69145;BME280;56251;50.324;17.574;2022-10-31T00:25:19;102228.01;;;11.97;73.00
69145;BME280;56251;50.324;17.574;2022-10-31T00:25:43;102228.77;;;11.93;73.08
69145;BME280;56251;50.324;17.574;2022-10-31T00:28:26;102231.27;;;11.96;73.05
69145;BME280;56251;50.324;17.574;2022-10-31T00:28:50;102229.67;;;11.92;73.06
69145;BME280;56251;50.324;17.574;2022-10-31T00:31:32;102230.43;;;11.89;73.22
69145;BME280;56251;50.324;17.574;2022-10-31T00:31:56;102231.19;;;11.92;73.18
69145;BME280;56251;50.324;17.574;2022-10-31T00:34:38;102235.04;;;11.86;73.15
69145;BME280;56251;50.324;17.574;2022-10-31T00:35:03;102233.05;;;11.86;73.12
69145;BME280;56251;50.324;17.574;2022-10-31T00:37:44;102231.53;;;11.80;73.22
69145;BME280;56251;50.324;17.574;2022-10-31T00:38:09;102232.79;;;11.83;73.21
69145;BME280;56251;50.324;17.574;2022-10-31T00:40:50;102232.05;;;11.84;72.97
69145;BME280;56251;50.324;17.574;2022-10-31T00:41:16;102234.45;;;11.79;73.05
69145;BME280;56251;50.324;17.574;2022-10-31T00:43:57;102232.66;;;11.77;73.29
69145;BME280;56251;50.324;17.574;2022-10-31T00:44:23;102234.61;;;11.72;73.36
69145;BME280;56251;50.324;17.574;2022-10-31T00:47:03;102232.27;;;11.78;73.30
69145;BME280;56251;50.324;17.574;2022-10-31T00:47:28;102234.55;;;11.80;73.25
69145;BME280;56251;50.324;17.574;2022-10-31T00:50:09;102231.27;;;11.76;73.35
69145;BME280;56251;50.324;17.574;2022-10-31T00:50:36;102232.77;;;11.77;73.35
69145;BME280;56251;50.324;17.574;2022-10-31T00:53:15;102230.79;;;11.76;73.36
69145;BME280;56251;50.324;17.574;2022-10-31T00:53:42;102230.35;;;11.80;73.36
69145;BME280;56251;50.324;17.574;2022-10-31T00:56:22;102231.34;;;11.80;73.30
69145;BME280;56251;50.324;17.574;2022-10-31T00:56:48;102227.26;;;11.77;73.38
69145;BME280;56251;50.324;17.574;2022-10-31T00:59:28;102231.94;;;11.79;73.32
69145;BME280;56251;50.324;17.574;2022-10-31T00:59:54;102231.12;;;11.75;73.33
69145;BME280;56251;50.324;17.574;2022-10-31T01:02:37;102232.44;;;11.77;73.31
69145;BME280;56251;50.324;17.574;2022-10-31T01:03:00;102227.96;;;11.77;73.28
69145;BME280;56251;50.324;17.574;2022-10-31T01:05:42;102233.97;;;11.76;73.29
69145;BME280;56251;50.324;17.574;2022-10-31T01:06:11;102229.03;;;11.77;73.22
69145;BME280;56251;50.324;17.574;2022-10-31T01:08:48;102227.59;;;11.75;73.09
69145;BME280;56251;50.324;17.574;2022-10-31T01:09:17;102227.75;;;11.78;73.07
69145;BME280;56251;50.324;17.574;2022-10-31T01:11:54;102230.59;;;11.79;72.94
69145;BME280;56251;50.324;17.574;2022-10-31T01:12:23;102230.27;;;11.75;72.98
69145;BME280;56251;50.324;17.574;2022-10-31T01:15:01;102227.86;;;11.77;72.83
69145;BME280;56251;50.324;17.574;2022-10-31T01:15:29;102231.26;;;11.72;72.85
69145;BME280;56251;50.324;17.574;2022-10-31T01:18:07;102228.85;;;11.73;72.69
69145;BME280;56251;50.324;17.574;2022-10-31T01:18:37;102229.93;;;11.75;72.60
69145;BME280;56251;50.324;17.574;2022-10-31T01:21:14;102230.63;;;11.67;72.55
69145;BME280;56251;50.324;17.574;2022-10-31T01:21:42;102229.15;;;11.70;72.49
69145;BME280;56251;50.324;17.574;2022-10-31T01:24:20;102232.30;;;11.61;72.47
69145;BME280;56251;50.324;17.574;2022-10-31T01:24:48;102232.71;;;11.65;72.48
69145;BME280;56251;50.324;17.574;2022-10-31T01:27:26;102230.48;;;11.65;72.48
69145;BME280;56251;50.324;17.574;2022-10-31T01:27:58;102231.02;;;11.61;72.58
69145;BME280;56251;50.324;17.574;2022-10-31T01:30:34;102227.88;;;11.62;72.58
69145;BME280;56251;50.324;17.574;2022-10-31T01:31:06;102229.85;;;11.60;72.61
69145;BME280;56251;50.324;17.574;2022-10-31T01:33:39;102233.54;;;11.60;72.50
69145;BME280;56251;50.324;17.574;2022-10-31T01:34:17;102232.88;;;11.57;72.45
69145;BME280;56251;50.324;17.574;2022-10-31T01:36:46;102228.20;;;11.55;72.60
69145;BME280;56251;50.324;17.574;2022-10-31T01:37:23;102229.43;;;11.57;72.58
69145;BME280;56251;50.324;17.574;2022-10-31T01:39:54;102224.75;;;11.54;72.66
69145;BME280;56251;50.324;17.574;2022-10-31T01:40:29;102226.37;;;11.54;72.70
69145;BME280;56251;50.324;17.574;2022-10-31T01:43:09;102227.55;;;11.52;72.73
69145;BME280;56251;50.324;17.574;2022-10-31T01:43:46;102225.25;;;11.54;72.77
69145;BME280;56251;50.324;17.574;2022-10-31T01:46:15;102226.11;;;11.58;72.75
69145;BME280;56251;50.324;17.574;2022-10-31T01:46:59;102220.25;;;11.57;72.80
69145;BME280;56251;50.324;17.574;2022-10-31T01:49:38;102222.15;;;11.59;72.81
69145;BME280;56251;50.324;17.574;2022-10-31T01:50:10;102221.38;;;11.58;72.86
69145;BME280;56251;50.324;17.574;2022-10-31T01:52:43;102224.43;;;11.59;72.90
69145;BME280;56251;50.324;17.574;2022-10-31T01:53:16;102224.00;;;11.57;72.94
69145;BME280;56251;50.324;17.574;2022-10-31T01:55:50;102223.77;;;11.60;72.93
69145;BME280;56251;50.324;17.574;2022-10-31T01:56:25;102223.23;;;11.58;72.91
69145;BME280;56251;50.324;17.574;2022-10-31T01:58:57;102226.10;;;11.61;72.92
69145;BME280;56251;50.324;17.574;2022-10-31T01:59:32;102226.80;;;11.64;72.86
69145;BME280;56251;50.324;17.574;2022-10-31T02:02:05;102222.97;;;11.61;72.78
69145;BME280;56251;50.324;17.574;2022-10-31T02:02:39;102223.32;;;11.64;72.72
69145;BME280;56251;50.324;17.574;2022-10-31T02:05:20;102226.37;;;11.55;72.90
69145;BME280;56251;50.324;17.574;2022-10-31T02:05:48;102228.42;;;11.58;72.94
69145;BME280;56251;50.324;17.574;2022-10-31T02:08:30;102233.19;;;11.59;72.89
69145;BME280;56251;50.324;17.574;2022-10-31T02:08:54;102231.50;;;11.56;72.95
69145;BME280;56251;50.324;17.574;2022-10-31T02:11:36;102234.73;;;11.58;72.83
69145;BME280;56251;50.324;17.574;2022-10-31T02:12:02;102233.58;;;11.54;72.81
69145;BME280;56251;50.324;17.574;2022-10-31T02:14:42;102233.22;;;11.57;72.82
69145;BME280;56251;50.324;17.574;2022-10-31T02:15:09;102232.21;;;11.59;72.76
69145;BME280;56251;50.324;17.574;2022-10-31T02:17:49;102233.52;;;11.55;72.80
69145;BME280;56251;50.324;17.574;2022-10-31T02:18:15;102230.37;;;11.57;72.79
69145;BME280;56251;50.324;17.574;2022-10-31T02:21:02;102232.36;;;11.53;72.72
69145;BME280;56251;50.324;17.574;2022-10-31T02:21:43;102233.22;;;11.57;72.68
69145;BME280;56251;50.324;17.574;2022-10-31T02:31:10;102235.39;;;11.50;72.81
69145;BME280;56251;50.324;17.574;2022-10-31T02:34:28;102234.63;;;11.49;72.87
69145;BME280;56251;50.324;17.574;2022-10-31T02:35:06;102235.48;;;11.46;72.90
69145;BME280;56251;50.324;17.574;2022-10-31T02:38:50;102238.16;;;11.46;72.81
69145;BME280;56251;50.324;17.574;2022-10-31T02:42:11;102239.19;;;11.46;72.83
69145;BME280;56251;50.324;17.574;2022-10-31T02:44:08;102243.51;;;11.43;72.96
69145;BME280;56251;50.324;17.574;2022-10-31T02:45:20;102241.60;;;11.44;72.81
69145;BME280;56251;50.324;17.574;2022-10-31T02:47:16;102248.14;;;11.43;72.71
69145;BME280;56251;50.324;17.574;2022-10-31T02:48:29;102245.44;;;11.44;72.70
69145;BME280;56251;50.324;17.574;2022-10-31T02:50:26;102248.10;;;11.38;72.79
69145;BME280;56251;50.324;17.574;2022-10-31T02:51:32;102244.04;;;11.37;72.80
69145;BME280;56251;50.324;17.574;2022-10-31T02:53:34;102244.44;;;11.37;72.72
69145;BME280;56251;50.324;17.574;2022-10-31T02:54:46;102243.09;;;11.38;72.72
69145;BME280;56251;50.324;17.574;2022-10-31T02:56:46;102245.37;;;11.38;72.62
69145;BME280;56251;50.324;17.574;2022-10-31T02:57:56;102248.17;;;11.38;72.62
69145;BME280;56251;50.324;17.574;2022-10-31T02:59:58;102246.22;;;11.40;72.68
69145;BME280;56251;50.324;17.574;2022-10-31T03:03:24;102251.58;;;11.38;72.74
69145;BME280;56251;50.324;17.574;2022-10-31T03:04:47;102252.65;;;11.37;72.88
69145;BME280;56251;50.324;17.574;2022-10-31T03:06:33;102256.02;;;11.35;72.90
69145;BME280;56251;50.324;17.574;2022-10-31T03:08:14;102260.53;;;11.36;72.89
69145;BME280;56251;50.324;17.574;2022-10-31T03:11:20;102258.34;;;11.36;72.88
69145;BME280;56251;50.324;17.574;2022-10-31T03:14:51;102265.23;;;11.36;72.92
69145;BME280;56251;50.324;17.574;2022-10-31T03:16:47;102261.98;;;11.35;72.88
69145;BME280;56251;50.324;17.574;2022-10-31T03:17:59;102265.90;;;11.36;72.84
69145;BME280;56251;50.324;17.574;2022-10-31T03:19:56;102265.61;;;11.35;72.85
69145;BME280;56251;50.324;17.574;2022-10-31T03:21:14;102269.38;;;11.32;72.93
69145;BME280;56251;50.324;17.574;2022-10-31T03:23:05;102269.46;;;11.27;73.11
69145;BME280;56251;50.324;17.574;2022-10-31T03:24:22;102272.38;;;11.26;73.21
69145;BME280;56251;50.324;17.574;2022-10-31T03:26:12;102275.18;;;11.27;73.19
69145;BME280;56251;50.324;17.574;2022-10-31T03:27:32;102275.53;;;11.29;73.12
69145;BME280;56251;50.324;17.574;2022-10-31T03:29:25;102273.65;;;11.27;73.02
69145;BME280;56251;50.324;17.574;2022-10-31T03:30:41;102273.76;;;11.29;72.98
69145;BME280;56251;50.324;17.574;2022-10-31T03:33:47;102276.02;;;11.31;72.82
69145;BME280;56251;50.324;17.574;2022-10-31T03:35:49;102279.59;;;11.31;72.81
69145;BME280;56251;50.324;17.574;2022-10-31T03:36:56;102281.01;;;11.31;72.79
69145;BME280;56251;50.324;17.574;2022-10-31T03:38:56;102279.80;;;11.28;72.81
69145;BME280;56251;50.324;17.574;2022-10-31T03:40:05;102277.95;;;11.28;72.77
69145;BME280;56251;50.324;17.574;2022-10-31T03:42:09;102282.32;;;11.26;72.73
69145;BME280;56251;50.324;17.574;2022-10-31T03:43:14;102286.07;;;11.25;72.68
69145;BME280;56251;50.324;17.574;2022-10-31T03:45:23;102284.56;;;11.24;72.66
69145;BME280;56251;50.324;17.574;2022-10-31T03:46:22;102289.66;;;11.22;72.68
69145;BME280;56251;50.324;17.574;2022-10-31T03:48:30;102293.33;;;11.16;72.74
69145;BME280;56251;50.324;17.574;2022-10-31T03:49:30;102292.38;;;11.12;72.81
69145;BME280;56251;50.324;17.574;2022-10-31T03:54:52;102298.48;;;11.13;72.64
69145;BME280;56251;50.324;17.574;2022-10-31T03:58:18;102303.66;;;10.85;72.92
69145;BME280;56251;50.324;17.574;2022-10-31T03:59:07;102302.79;;;10.79;73.14
69145;BME280;56251;50.324;17.574;2022-10-31T04:01:21;102301.48;;;10.78;73.00
69145;BME280;56251;50.324;17.574;2022-10-31T04:02:16;102302.91;;;10.80;72.90
69145;BME280;56251;50.324;17.574;2022-10-31T04:04:29;102302.18;;;10.81;72.68
69145;BME280;56251;50.324;17.574;2022-10-31T04:05:24;102302.91;;;10.83;72.64
69145;BME280;56251;50.324;17.574;2022-10-31T04:07:38;102300.89;;;10.80;72.61
69145;BME280;56251;50.324;17.574;2022-10-31T04:08:32;102304.26;;;10.80;72.56
69145;BME280;56251;50.324;17.574;2022-10-31T04:10:45;102302.46;;;10.82;72.37
69145;BME280;56251;50.324;17.574;2022-10-31T04:11:42;102301.17;;;10.82;72.27
69145;BME280;56251;50.324;17.574;2022-10-31T04:13:53;102305.70;;;10.84;72.12
69145;BME280;56251;50.324;17.574;2022-10-31T04:14:48;102308.08;;;10.87;72.15
69145;BME280;56251;50.324;17.574;2022-10-31T04:17:01;102306.47;;;10.84;72.32
69145;BME280;56251;50.324;17.574;2022-10-31T04:17:57;102306.65;;;10.83;72.33
69145;BME280;56251;50.324;17.574;2022-10-31T04:20:08;102308.38;;;10.83;72.17
69145;BME280;56251;50.324;17.574;2022-10-31T04:21:05;102307.94;;;10.82;72.20
69145;BME280;56251;50.324;17.574;2022-10-31T04:23:25;102309.95;;;10.82;72.19
69145;BME280;56251;50.324;17.574;2022-10-31T04:24:11;102309.78;;;10.80;72.19
69145;BME280;56251;50.324;17.574;2022-10-31T04:26:31;102313.07;;;10.79;72.28
69145;BME280;56251;50.324;17.574;2022-10-31T04:27:17;102306.16;;;10.76;72.36
69145;BME280;56251;50.324;17.574;2022-10-31T04:29:37;102311.02;;;10.77;72.51
69145;BME280;56251;50.324;17.574;2022-10-31T04:30:28;102307.38;;;10.75;72.59
69145;BME280;56251;50.324;17.574;2022-10-31T04:32:43;102310.46;;;10.72;72.77
69145;BME280;56251;50.324;17.574;2022-10-31T04:33:34;102308.02;;;10.76;72.70
69145;BME280;56251;50.324;17.574;2022-10-31T04:35:49;102311.34;;;10.77;72.67
69145;BME280;56251;50.324;17.574;2022-10-31T04:36:40;102314.10;;;10.75;72.73
69145;BME280;56251;50.324;17.574;2022-10-31T04:38:55;102318.66;;;10.76;72.72
69145;BME280;56251;50.324;17.574;2022-10-31T04:39:47;102317.95;;;10.72;72.73
69145;BME280;56251;50.324;17.574;2022-10-31T04:42:01;102320.63;;;10.73;72.65
69145;BME280;56251;50.324;17.574;2022-10-31T04:42:56;102320.34;;;10.71;72.62
69145;BME280;56251;50.324;17.574;2022-10-31T04:45:07;102318.34;;;10.69;72.56
69145;BME280;56251;50.324;17.574;2022-10-31T04:46:05;102315.38;;;10.69;72.46
69145;BME280;56251;50.324;17.574;2022-10-31T04:48:14;102322.00;;;10.64;72.65
69145;BME280;56251;50.324;17.574;2022-10-31T04:49:15;102320.44;;;10.61;72.71
69145;BME280;56251;50.324;17.574;2022-10-31T04:51:21;102320.66;;;10.66;72.71
69145;BME280;56251;50.324;17.574;2022-10-31T04:52:21;102319.48;;;10.65;72.71
69145;BME280;56251;50.324;17.574;2022-10-31T04:54:27;102327.08;;;10.64;72.73
69145;BME280;56251;50.324;17.574;2022-10-31T04:55:27;102321.38;;;10.65;72.74
69145;BME280;56251;50.324;17.574;2022-10-31T04:57:39;102323.45;;;10.60;72.75
69145;BME280;56251;50.324;17.574;2022-10-31T04:58:37;102328.23;;;10.61;72.72
69145;BME280;56251;50.324;17.574;2022-10-31T05:00:39;102329.30;;;10.59;72.63
69145;BME280;56251;50.324;17.574;2022-10-31T05:01:43;102333.84;;;10.59;72.54
69145;BME280;56251;50.324;17.574;2022-10-31T05:03:45;102328.81;;;10.55;72.47
69145;BME280;56251;50.324;17.574;2022-10-31T05:04:49;102330.77;;;10.54;72.48
69145;BME280;56251;50.324;17.574;2022-10-31T05:06:51;102332.01;;;10.52;72.68
69145;BME280;56251;50.324;17.574;2022-10-31T05:07:56;102331.45;;;10.54;72.81
69145;BME280;56251;50.324;17.574;2022-10-31T05:09:57;102335.48;;;10.48;73.16
69145;BME280;56251;50.324;17.574;2022-10-31T05:11:03;102332.02;;;10.46;73.45
69145;BME280;56251;50.324;17.574;2022-10-31T05:13:04;102332.35;;;10.47;73.55
69145;BME280;56251;50.324;17.574;2022-10-31T05:14:09;102335.70;;;10.47;73.67
69145;BME280;56251;50.324;17.574;2022-10-31T05:16:13;102333.41;;;10.46;73.69
69145;BME280;56251;50.324;17.574;2022-10-31T05:17:16;102331.17;;;10.45;73.83
69145;BME280;56251;50.324;17.574;2022-10-31T05:19:19;102332.77;;;10.35;74.80
69145;BME280;56251;50.324;17.574;2022-10-31T05:20:24;102337.91;;;10.33;74.88
69145;BME280;56251;50.324;17.574;2022-10-31T05:22:30;102335.14;;;10.44;74.63
69145;BME280;56251;50.324;17.574;2022-10-31T05:23:29;102343.02;;;10.48;74.58
69145;BME280;56251;50.324;17.574;2022-10-31T05:25:36;102337.47;;;10.50;74.52
69145;BME280;56251;50.324;17.574;2022-10-31T05:26:36;102338.87;;;10.50;74.42
69145;BME280;56251;50.324;17.574;2022-10-31T05:28:42;102338.85;;;10.55;74.23
69145;BME280;56251;50.324;17.574;2022-10-31T05:29:42;102340.09;;;10.57;74.13
69145;BME280;56251;50.324;17.574;2022-10-31T05:31:48;102337.91;;;10.55;74.12
69145;BME280;56251;50.324;17.574;2022-10-31T05:32:49;102342.05;;;10.51;74.21
69145;BME280;56251;50.324;17.574;2022-10-31T05:34:54;102342.78;;;10.53;74.03
69145;BME280;56251;50.324;17.574;2022-10-31T05:35:56;102341.94;;;10.55;73.93
69145;BME280;56251;50.324;17.574;2022-10-31T05:38:02;102343.04;;;10.59;73.57
69145;BME280;56251;50.324;17.574;2022-10-31T05:39:09;102343.16;;;10.60;73.43
69145;BME280;56251;50.324;17.574;2022-10-31T05:41:08;102339.63;;;10.63;73.46
69145;BME280;56251;50.324;17.574;2022-10-31T05:42:15;102341.52;;;10.63;73.44
69145;BME280;56251;50.324;17.574;2022-10-31T05:44:15;102342.13;;;10.65;73.33
69145;BME280;56251;50.324;17.574;2022-10-31T05:45:22;102343.08;;;10.63;73.27
69145;BME280;56251;50.324;17.574;2022-10-31T05:47:21;102343.38;;;10.53;73.26
69145;BME280;56251;50.324;17.574;2022-10-31T05:48:29;102343.13;;;10.53;73.42
69145;BME280;56251;50.324;17.574;2022-10-31T05:50:30;102344.30;;;10.53;73.44
69145;BME280;56251;50.324;17.574;2022-10-31T05:51:35;102347.28;;;10.54;73.40
69145;BME280;56251;50.324;17.574;2022-10-31T05:53:37;102345.83;;;10.58;73.30
69145;BME280;56251;50.324;17.574;2022-10-31T05:54:41;102351.42;;;10.58;73.29
69145;BME280;56251;50.324;17.574;2022-10-31T05:56:47;102352.23;;;10.65;73.11
69145;BME280;56251;50.324;17.574;2022-10-31T05:57:47;102348.88;;;10.68;73.12
69145;BME280;56251;50.324;17.574;2022-10-31T05:59:53;102353.16;;;10.69;73.14
69145;BME280;56251;50.324;17.574;2022-10-31T06:00:55;102357.74;;;10.68;73.18
69145;BME280;56251;50.324;17.574;2022-10-31T06:03:01;102355.18;;;10.69;73.28
69145;BME280;56251;50.324;17.574;2022-10-31T06:04:01;102352.23;;;10.71;73.22
69145;BME280;56251;50.324;17.574;2022-10-31T06:06:07;102353.78;;;10.76;73.11
69145;BME280;56251;50.324;17.574;2022-10-31T06:07:07;102353.22;;;10.78;73.07
69145;BME280;56251;50.324;17.574;2022-10-31T06:09:13;102354.31;;;10.83;73.06
69145;BME280;56251;50.324;17.574;2022-10-31T06:10:13;102351.25;;;10.83;73.05
69145;BME280;56251;50.324;17.574;2022-10-31T06:12:21;102354.93;;;10.83;73.20
69145;BME280;56251;50.324;17.574;2022-10-31T06:13:20;102356.70;;;10.90;73.26
69145;BME280;56251;50.324;17.574;2022-10-31T06:15:27;102356.39;;;10.93;73.39
69145;BME280;56251;50.324;17.574;2022-10-31T06:16:26;102357.80;;;10.96;73.40
69145;BME280;56251;50.324;17.574;2022-10-31T06:18:34;102357.83;;;11.03;73.45
69145;BME280;56251;50.324;17.574;2022-10-31T06:19:32;102356.35;;;11.06;73.47
69145;BME280;56251;50.324;17.574;2022-10-31T06:21:40;102359.19;;;11.12;73.59
69145;BME280;56251;50.324;17.574;2022-10-31T06:22:38;102357.97;;;11.13;73.64
69145;BME280;56251;50.324;17.574;2022-10-31T06:24:47;102359.11;;;11.18;73.77
69145;BME280;56251;50.324;17.574;2022-10-31T06:25:48;102362.46;;;11.19;73.77
69145;BME280;56251;50.324;17.574;2022-10-31T06:27:53;102363.50;;;11.22;73.53
69145;BME280;56251;50.324;17.574;2022-10-31T06:28:51;102362.08;;;11.28;73.47
69145;BME280;56251;50.324;17.574;2022-10-31T06:31:00;102365.67;;;11.34;73.14
69145;BME280;56251;50.324;17.574;2022-10-31T06:31:57;102363.10;;;11.35;73.12
69145;BME280;56251;50.324;17.574;2022-10-31T06:34:06;102367.05;;;11.40;73.21
69145;BME280;56251;50.324;17.574;2022-10-31T06:35:03;102369.16;;;11.44;73.23
69145;BME280;56251;50.324;17.574;2022-10-31T06:37:12;102366.50;;;11.52;73.38
69145;BME280;56251;50.324;17.574;2022-10-31T06:38:09;102365.58;;;11.55;73.53
69145;BME280;56251;50.324;17.574;2022-10-31T06:40:18;102367.12;;;11.66;73.78
69145;BME280;56251;50.324;17.574;2022-10-31T06:41:16;102366.62;;;11.70;73.64
69145;BME280;56251;50.324;17.574;2022-10-31T06:43:24;102366.06;;;11.78;73.96
69145;BME280;56251;50.324;17.574;2022-10-31T06:44:22;102365.08;;;11.89;73.94
69145;BME280;56251;50.324;17.574;2022-10-31T06:46:30;102363.35;;;12.03;73.63
69145;BME280;56251;50.324;17.574;2022-10-31T06:47:28;102366.45;;;12.07;73.00
69145;BME280;56251;50.324;17.574;2022-10-31T06:49:36;102363.77;;;12.19;73.26
69145;BME280;56251;50.324;17.574;2022-10-31T06:50:35;102366.47;;;12.26;73.33
69145;BME280;56251;50.324;17.574;2022-10-31T06:52:42;102368.38;;;12.43;73.18
69145;BME280;56251;50.324;17.574;2022-10-31T06:53:41;102368.35;;;12.51;72.72
69145;BME280;56251;50.324;17.574;2022-10-31T06:55:48;102371.05;;;12.68;72.59
69145;BME280;56251;50.324;17.574;2022-10-31T06:56:48;102371.39;;;12.73;72.81
69145;BME280;56251;50.324;17.574;2022-10-31T06:58:54;102370.91;;;12.95;72.68
69145;BME280;56251;50.324;17.574;2022-10-31T07:00:00;102370.57;;;13.06;72.10
69145;BME280;56251;50.324;17.574;2022-10-31T07:02:00;102369.53;;;13.30;71.88
69145;BME280;56251;50.324;17.574;2022-10-31T07:03:09;102377.72;;;13.42;70.79
69145;BME280;56251;50.324;17.574;2022-10-31T07:05:06;102372.98;;;13.64;69.93
69145;BME280;56251;50.324;17.574;2022-10-31T07:06:15;102371.33;;;13.74;69.33
69145;BME280;56251;50.324;17.574;2022-10-31T07:08:13;102375.69;;;13.94;68.83
69145;BME280;56251;50.324;17.574;2022-10-31T07:09:21;102374.42;;;14.04;68.24
69145;BME280;56251;50.324;17.574;2022-10-31T07:11:19;102373.12;;;14.18;67.86
69145;BME280;56251;50.324;17.574;2022-10-31T07:12:27;102375.32;;;14.30;67.71
69145;BME280;56251;50.324;17.574;2022-10-31T07:14:25;102376.86;;;14.48;67.74
69145;BME280;56251;50.324;17.574;2022-10-31T07:15:35;102384.31;;;14.63;67.43
69145;BME280;56251;50.324;17.574;2022-10-31T07:17:31;102378.73;;;14.84;66.38
69145;BME280;56251;50.324;17.574;2022-10-31T07:18:40;102379.65;;;15.02;66.07
69145;BME280;56251;50.324;17.574;2022-10-31T07:20:37;102380.23;;;15.18;65.05
69145;BME280;56251;50.324;17.574;2022-10-31T07:21:46;102382.54;;;15.32;64.44
69145;BME280;56251;50.324;17.574;2022-10-31T07:23:47;102382.09;;;15.53;64.86
69145;BME280;56251;50.324;17.574;2022-10-31T07:24:53;102379.00;;;15.69;64.27
69145;BME280;56251;50.324;17.574;2022-10-31T07:26:52;102380.41;;;15.88;63.69
69145;BME280;56251;50.324;17.574;2022-10-31T07:27:59;102379.83;;;16.01;63.73
69145;BME280;56251;50.324;17.574;2022-10-31T07:29:58;102384.99;;;16.25;62.97
69145;BME280;56251;50.324;17.574;2022-10-31T07:31:05;102388.38;;;16.33;61.98
69145;BME280;56251;50.324;17.574;2022-10-31T07:33:04;102385.34;;;16.42;60.09
69145;BME280;56251;50.324;17.574;2022-10-31T07:34:11;102391.12;;;16.59;58.97
69145;BME280;56251;50.324;17.574;2022-10-31T07:36:10;102394.30;;;16.82;57.56
69145;BME280;56251;50.324;17.574;2022-10-31T07:37:17;102395.72;;;16.94;56.44
69145;BME280;56251;50.324;17.574;2022-10-31T07:39:19;102392.09;;;17.10;56.28
69145;BME280;56251;50.324;17.574;2022-10-31T07:40:26;102394.12;;;17.16;56.18
69145;BME280;56251;50.324;17.574;2022-10-31T07:42:25;102395.66;;;17.21;56.14
69145;BME280;56251;50.324;17.574;2022-10-31T07:43:32;102393.00;;;17.25;56.02
69145;BME280;56251;50.324;17.574;2022-10-31T07:45:31;102389.98;;;17.38;56.19
69145;BME280;56251;50.324;17.574;2022-10-31T07:46:38;102394.10;;;17.42;55.38
69145;BME280;56251;50.324;17.574;2022-10-31T07:48:37;102392.81;;;17.53;55.42
69145;BME280;56251;50.324;17.574;2022-10-31T07:49:44;102390.45;;;17.64;56.48
69145;BME280;56251;50.324;17.574;2022-10-31T07:51:45;102396.84;;;17.81;57.11
69145;BME280;56251;50.324;17.574;2022-10-31T07:53:00;102395.90;;;17.87;56.41
69145;BME280;56251;50.324;17.574;2022-10-31T07:54:52;102396.72;;;18.01;55.67
69145;BME280;56251;50.324;17.574;2022-10-31T07:56:06;102392.46;;;18.08;55.21
69145;BME280;56251;50.324;17.574;2022-10-31T07:57:59;102392.28;;;18.27;55.15
69145;BME280;56251;50.324;17.574;2022-10-31T07:59:12;102394.05;;;18.32;54.70
69145;BME280;56251;50.324;17.574;2022-10-31T08:01:06;102396.02;;;18.49;54.98
69145;BME280;56251;50.324;17.574;2022-10-31T08:02:19;102395.63;;;18.58;55.01
69145;BME280;56251;50.324;17.574;2022-10-31T08:04:16;102395.07;;;18.73;54.21
69145;BME280;56251;50.324;17.574;2022-10-31T08:05:25;102392.32;;;18.84;54.51
69145;BME280;56251;50.324;17.574;2022-10-31T08:07:22;102391.52;;;19.03;53.99
69145;BME280;56251;50.324;17.574;2022-10-31T08:08:32;102390.81;;;19.10;54.39
69145;BME280;56251;50.324;17.574;2022-10-31T08:10:28;102391.45;;;19.27;54.75
69145;BME280;56251;50.324;17.574;2022-10-31T08:11:38;102393.37;;;19.36;55.15
69145;BME280;56251;50.324;17.574;2022-10-31T08:13:34;102389.61;;;19.52;54.51
69145;BME280;56251;50.324;17.574;2022-10-31T08:14:44;102388.38;;;19.58;54.17
69145;BME280;56251;50.324;17.574;2022-10-31T08:16:40;102389.38;;;19.73;54.22
69145;BME280;56251;50.324;17.574;2022-10-31T08:17:50;102389.02;;;19.81;54.01
69145;BME280;56251;50.324;17.574;2022-10-31T08:19:46;102387.04;;;19.93;53.95
69145;BME280;56251;50.324;17.574;2022-10-31T08:20:56;102386.18;;;19.98;53.79
69145;BME280;56251;50.324;17.574;2022-10-31T08:22:57;102388.40;;;20.16;53.56
69145;BME280;56251;50.324;17.574;2022-10-31T08:24:02;102388.83;;;20.26;53.47
69145;BME280;56251;50.324;17.574;2022-10-31T08:26:00;102391.20;;;20.38;53.45
69145;BME280;56251;50.324;17.574;2022-10-31T08:27:08;102393.03;;;20.46;53.31